sensor_id;sensor_type;location;lat;lon;timestamp;P1;durP1;ratioP1;P2;durP2;ratioP2
22916;SDS011;11624;53.250;7.456;2023-08-06T00:01:20;18.52;;;8.82;;
22916;SDS011;11624;53.250;7.456;2023-08-06T00:03:49;18.48;;;8.98;;
22916;SDS011;11624;53.250;7.456;2023-08-06T00:06:18;17.80;;;9.20;;
22916;SDS011;11624;53.250;7.456;2023-08-06T00:08:46;19.50;;;8.90;;
22916;SDS011;11624;53.250;7.456;2023-08-06T00:11:16;20.88;;;9.52;;
22916;SDS011;11624;53.250;7.456;2023-08-06T00:13:44;19.85;;;9.20;;
22916;SDS011;11624;53.250;7.456;2023-08-06T00:16:12;19.33;;;8.88;;
22916;SDS011;11624;53.250;7.456;2023-08-06T00:18:41;19.35;;;8.38;;
22916;SDS011;11624;53.250;7.456;2023-08-06T00:21:09;18.40;;;8.45;;
22916;SDS011;11624;53.250;7.456;2023-08-06T00:23:39;17.58;;;8.82;;
22916;SDS011;11624;53.250;7.456;2023-08-06T00:26:07;18.98;;;8.77;;
22916;SDS011;11624;53.250;7.456;2023-08-06T00:28:37;21.17;;;9.27;;
22916;SDS011;11624;53.250;7.456;2023-08-06T00:31:05;18.95;;;8.60;;
22916;SDS011;11624;53.250;7.456;2023-08-06T00:33:34;19.88;;;8.70;;
22916;SDS011;11624;53.250;7.456;2023-08-06T00:36:02;19.65;;;8.85;;
22916;SDS011;11624;53.250;7.456;2023-08-06T00:38:31;19.27;;;8.90;;
22916;SDS011;11624;53.250;7.456;2023-08-06T00:40:59;19.77;;;9.10;;
22916;SDS011;11624;53.250;7.456;2023-08-06T00:43:27;19.88;;;9.10;;
22916;SDS011;11624;53.250;7.456;2023-08-06T00:45:57;18.60;;;8.38;;
22916;SDS011;11624;53.250;7.456;2023-08-06T00:48:26;19.55;;;8.90;;
22916;SDS011;11624;53.250;7.456;2023-08-06T00:50:54;19.75;;;9.25;;
22916;SDS011;11624;53.250;7.456;2023-08-06T00:53:23;19.58;;;9.40;;
22916;SDS011;11624;53.250;7.456;2023-08-06T00:55:51;22.50;;;9.48;;
22916;SDS011;11624;53.250;7.456;2023-08-06T00:58:20;19.70;;;9.00;;
22916;SDS011;11624;53.250;7.456;2023-08-06T01:00:48;19.42;;;9.00;;
22916;SDS011;11624;53.250;7.456;2023-08-06T01:03:19;18.83;;;9.02;;
22916;SDS011;11624;53.250;7.456;2023-08-06T01:05:47;22.67;;;9.88;;
22916;SDS011;11624;53.250;7.456;2023-08-06T01:08:19;22.15;;;9.52;;
22916;SDS011;11624;53.250;7.456;2023-08-06T01:10:59;19.67;;;8.23;;
22916;SDS011;11624;53.250;7.456;2023-08-06T01:13:38;19.08;;;9.10;;
22916;SDS011;11624;53.250;7.456;2023-08-06T01:16:10;21.30;;;9.48;;
22916;SDS011;11624;53.250;7.456;2023-08-06T01:18:42;19.85;;;9.52;;
22916;SDS011;11624;53.250;7.456;2023-08-06T01:21:14;21.42;;;9.88;;
22916;SDS011;11624;53.250;7.456;2023-08-06T01:23:43;20.85;;;9.77;;
22916;SDS011;11624;53.250;7.456;2023-08-06T01:26:14;22.40;;;9.90;;
22916;SDS011;11624;53.250;7.456;2023-08-06T01:28:48;24.40;;;10.52;;
22916;SDS011;11624;53.250;7.456;2023-08-06T01:31:24;20.73;;;10.05;;
22916;SDS011;11624;53.250;7.456;2023-08-06T01:33:55;23.60;;;9.88;;
22916;SDS011;11624;53.250;7.456;2023-08-06T01:36:25;18.73;;;9.45;;
22916;SDS011;11624;53.250;7.456;2023-08-06T01:38:55;22.05;;;10.52;;
22916;SDS011;11624;53.250;7.456;2023-08-06T01:41:24;20.30;;;9.70;;
22916;SDS011;11624;53.250;7.456;2023-08-06T01:43:53;24.45;;;10.57;;
22916;SDS011;11624;53.250;7.456;2023-08-06T01:46:21;21.42;;;10.32;;
22916;SDS011;11624;53.250;7.456;2023-08-06T01:48:50;21.65;;;10.40;;
22916;SDS011;11624;53.250;7.456;2023-08-06T01:51:18;23.05;;;10.88;;
22916;SDS011;11624;53.250;7.456;2023-08-06T01:53:48;24.73;;;10.55;;
22916;SDS011;11624;53.250;7.456;2023-08-06T01:56:17;21.23;;;9.93;;
22916;SDS011;11624;53.250;7.456;2023-08-06T01:58:46;20.52;;;10.18;;
22916;SDS011;11624;53.250;7.456;2023-08-06T02:01:14;25.27;;;10.73;;
22916;SDS011;11624;53.250;7.456;2023-08-06T02:03:42;22.52;;;10.65;;
22916;SDS011;11624;53.250;7.456;2023-08-06T02:06:11;23.70;;;10.27;;
22916;SDS011;11624;53.250;7.456;2023-08-06T02:08:39;23.33;;;11.15;;
22916;SDS011;11624;53.250;7.456;2023-08-06T02:11:09;22.63;;;10.23;;
22916;SDS011;11624;53.250;7.456;2023-08-06T02:13:37;21.48;;;10.18;;
22916;SDS011;11624;53.250;7.456;2023-08-06T02:16:06;24.50;;;10.70;;
22916;SDS011;11624;53.250;7.456;2023-08-06T02:18:35;24.02;;;10.93;;
22916;SDS011;11624;53.250;7.456;2023-08-06T02:21:03;23.90;;;10.90;;
22916;SDS011;11624;53.250;7.456;2023-08-06T02:23:32;25.20;;;11.43;;
22916;SDS011;11624;53.250;7.456;2023-08-06T02:26:01;22.17;;;11.02;;
22916;SDS011;11624;53.250;7.456;2023-08-06T02:28:31;22.60;;;10.85;;
22916;SDS011;11624;53.250;7.456;2023-08-06T02:31:00;23.25;;;11.05;;
22916;SDS011;11624;53.250;7.456;2023-08-06T02:33:28;21.60;;;10.80;;
22916;SDS011;11624;53.250;7.456;2023-08-06T02:36:00;24.85;;;10.63;;
22916;SDS011;11624;53.250;7.456;2023-08-06T02:38:30;21.80;;;10.02;;
22916;SDS011;11624;53.250;7.456;2023-08-06T02:40:58;25.02;;;10.85;;
22916;SDS011;11624;53.250;7.456;2023-08-06T02:43:29;22.52;;;10.57;;
22916;SDS011;11624;53.250;7.456;2023-08-06T02:45:59;25.02;;;10.93;;
22916;SDS011;11624;53.250;7.456;2023-08-06T02:48:28;22.15;;;10.25;;
22916;SDS011;11624;53.250;7.456;2023-08-06T02:50:57;27.75;;;12.10;;
22916;SDS011;11624;53.250;7.456;2023-08-06T02:53:28;25.13;;;11.05;;
22916;SDS011;11624;53.250;7.456;2023-08-06T02:55:59;23.33;;;10.73;;
22916;SDS011;11624;53.250;7.456;2023-08-06T02:58:36;21.65;;;10.32;;
22916;SDS011;11624;53.250;7.456;2023-08-06T03:01:18;25.70;;;11.23;;
22916;SDS011;11624;53.250;7.456;2023-08-06T03:03:53;22.55;;;10.43;;
22916;SDS011;11624;53.250;7.456;2023-08-06T03:06:28;22.35;;;9.98;;
22916;SDS011;11624;53.250;7.456;2023-08-06T03:08:58;24.20;;;10.48;;
22916;SDS011;11624;53.250;7.456;2023-08-06T03:11:27;23.73;;;10.55;;
22916;SDS011;11624;53.250;7.456;2023-08-06T03:14:01;23.70;;;10.07;;
22916;SDS011;11624;53.250;7.456;2023-08-06T03:16:31;27.08;;;11.15;;
22916;SDS011;11624;53.250;7.456;2023-08-06T03:18:59;24.15;;;10.63;;
22916;SDS011;11624;53.250;7.456;2023-08-06T03:21:28;26.05;;;10.65;;
22916;SDS011;11624;53.250;7.456;2023-08-06T03:23:57;24.55;;;11.35;;
22916;SDS011;11624;53.250;7.456;2023-08-06T03:26:29;23.98;;;10.85;;
22916;SDS011;11624;53.250;7.456;2023-08-06T03:28:57;21.83;;;10.48;;
22916;SDS011;11624;53.250;7.456;2023-08-06T03:31:28;22.67;;;11.23;;
22916;SDS011;11624;53.250;7.456;2023-08-06T03:33:58;22.65;;;10.82;;
22916;SDS011;11624;53.250;7.456;2023-08-06T03:36:29;23.40;;;10.40;;
22916;SDS011;11624;53.250;7.456;2023-08-06T03:38:59;24.73;;;10.95;;
22916;SDS011;11624;53.250;7.456;2023-08-06T03:41:29;22.63;;;9.88;;
22916;SDS011;11624;53.250;7.456;2023-08-06T03:43:58;24.40;;;10.43;;
22916;SDS011;11624;53.250;7.456;2023-08-06T03:46:27;20.48;;;10.27;;
22916;SDS011;11624;53.250;7.456;2023-08-06T03:48:55;22.52;;;10.70;;
22916;SDS011;11624;53.250;7.456;2023-08-06T03:51:26;21.88;;;10.23;;
22916;SDS011;11624;53.250;7.456;2023-08-06T03:53:55;22.60;;;10.52;;
22916;SDS011;11624;53.250;7.456;2023-08-06T03:56:24;30.10;;;10.15;;
22916;SDS011;11624;53.250;7.456;2023-08-06T03:58:52;24.58;;;10.90;;
22916;SDS011;11624;53.250;7.456;2023-08-06T04:01:23;26.48;;;10.80;;
22916;SDS011;11624;53.250;7.456;2023-08-06T04:03:52;26.42;;;10.30;;
22916;SDS011;11624;53.250;7.456;2023-08-06T04:06:28;22.40;;;9.80;;
22916;SDS011;11624;53.250;7.456;2023-08-06T04:08:57;23.63;;;10.43;;
22916;SDS011;11624;53.250;7.456;2023-08-06T04:11:25;23.85;;;10.40;;
22916;SDS011;11624;53.250;7.456;2023-08-06T04:13:54;22.00;;;10.82;;
22916;SDS011;11624;53.250;7.456;2023-08-06T04:16:23;24.60;;;11.38;;
22916;SDS011;11624;53.250;7.456;2023-08-06T04:18:54;22.33;;;10.95;;
22916;SDS011;11624;53.250;7.456;2023-08-06T04:21:23;26.45;;;10.75;;
22916;SDS011;11624;53.250;7.456;2023-08-06T04:23:52;22.50;;;10.38;;
22916;SDS011;11624;53.250;7.456;2023-08-06T04:26:21;26.17;;;10.45;;
22916;SDS011;11624;53.250;7.456;2023-08-06T04:28:49;25.10;;;10.82;;
22916;SDS011;11624;53.250;7.456;2023-08-06T04:31:19;23.02;;;10.85;;
22916;SDS011;11624;53.250;7.456;2023-08-06T04:33:47;22.05;;;10.38;;
22916;SDS011;11624;53.250;7.456;2023-08-06T04:36:16;22.75;;;10.93;;
22916;SDS011;11624;53.250;7.456;2023-08-06T04:38:45;22.20;;;9.88;;
22916;SDS011;11624;53.250;7.456;2023-08-06T04:41:16;24.00;;;11.05;;
22916;SDS011;11624;53.250;7.456;2023-08-06T04:43:44;22.90;;;10.98;;
22916;SDS011;11624;53.250;7.456;2023-08-06T04:46:13;23.70;;;10.50;;
22916;SDS011;11624;53.250;7.456;2023-08-06T04:48:41;23.42;;;10.70;;
22916;SDS011;11624;53.250;7.456;2023-08-06T04:51:10;23.65;;;10.38;;
22916;SDS011;11624;53.250;7.456;2023-08-06T04:53:38;21.50;;;9.85;;
22916;SDS011;11624;53.250;7.456;2023-08-06T04:56:06;23.30;;;10.63;;
22916;SDS011;11624;53.250;7.456;2023-08-06T04:58:36;23.70;;;10.75;;
22916;SDS011;11624;53.250;7.456;2023-08-06T05:01:06;23.95;;;9.90;;
22916;SDS011;11624;53.250;7.456;2023-08-06T05:03:34;27.13;;;10.30;;
22916;SDS011;11624;53.250;7.456;2023-08-06T05:06:02;20.90;;;10.00;;
22916;SDS011;11624;53.250;7.456;2023-08-06T05:08:31;22.23;;;9.93;;
22916;SDS011;11624;53.250;7.456;2023-08-06T05:10:59;23.42;;;9.85;;
22916;SDS011;11624;53.250;7.456;2023-08-06T05:13:27;21.40;;;10.25;;
22916;SDS011;11624;53.250;7.456;2023-08-06T05:15:57;23.38;;;9.73;;
22916;SDS011;11624;53.250;7.456;2023-08-06T05:18:26;20.02;;;9.23;;
22916;SDS011;11624;53.250;7.456;2023-08-06T05:20:54;23.38;;;9.93;;
22916;SDS011;11624;53.250;7.456;2023-08-06T05:23:23;22.80;;;10.20;;
22916;SDS011;11624;53.250;7.456;2023-08-06T05:25:51;23.98;;;10.00;;
22916;SDS011;11624;53.250;7.456;2023-08-06T05:28:20;20.23;;;8.63;;
22916;SDS011;11624;53.250;7.456;2023-08-06T05:30:48;26.55;;;10.25;;
22916;SDS011;11624;53.250;7.456;2023-08-06T05:33:18;22.55;;;10.07;;
22916;SDS011;11624;53.250;7.456;2023-08-06T05:35:46;23.98;;;9.95;;
22916;SDS011;11624;53.250;7.456;2023-08-06T05:38:16;19.35;;;8.80;;
22916;SDS011;11624;53.250;7.456;2023-08-06T05:40:45;22.08;;;8.77;;
22916;SDS011;11624;53.250;7.456;2023-08-06T05:43:14;18.88;;;8.77;;
22916;SDS011;11624;53.250;7.456;2023-08-06T05:45:44;20.05;;;9.27;;
22916;SDS011;11624;53.250;7.456;2023-08-06T05:48:13;21.42;;;8.95;;
22916;SDS011;11624;53.250;7.456;2023-08-06T05:50:42;19.63;;;8.98;;
22916;SDS011;11624;53.250;7.456;2023-08-06T05:53:11;19.27;;;9.00;;
22916;SDS011;11624;53.250;7.456;2023-08-06T05:55:39;17.40;;;8.70;;
22916;SDS011;11624;53.250;7.456;2023-08-06T05:58:08;18.92;;;8.55;;
22916;SDS011;11624;53.250;7.456;2023-08-06T06:00:36;23.08;;;8.35;;
22916;SDS011;11624;53.250;7.456;2023-08-06T06:03:04;19.65;;;8.32;;
22916;SDS011;11624;53.250;7.456;2023-08-06T06:05:33;18.08;;;8.23;;
22916;SDS011;11624;53.250;7.456;2023-08-06T06:08:02;17.08;;;7.43;;
22916;SDS011;11624;53.250;7.456;2023-08-06T06:10:31;16.85;;;7.82;;
22916;SDS011;11624;53.250;7.456;2023-08-06T06:12:59;16.80;;;7.57;;
22916;SDS011;11624;53.250;7.456;2023-08-06T06:15:28;17.48;;;7.97;;
22916;SDS011;11624;53.250;7.456;2023-08-06T06:17:56;14.77;;;7.10;;
22916;SDS011;11624;53.250;7.456;2023-08-06T06:20:24;16.50;;;7.45;;
22916;SDS011;11624;53.250;7.456;2023-08-06T06:22:53;17.58;;;7.47;;
22916;SDS011;11624;53.250;7.456;2023-08-06T06:25:22;15.13;;;6.97;;
22916;SDS011;11624;53.250;7.456;2023-08-06T06:27:51;16.17;;;6.95;;
22916;SDS011;11624;53.250;7.456;2023-08-06T06:30:19;17.33;;;7.53;;
22916;SDS011;11624;53.250;7.456;2023-08-06T06:32:48;14.20;;;6.72;;
22916;SDS011;11624;53.250;7.456;2023-08-06T06:35:16;15.93;;;6.95;;
22916;SDS011;11624;53.250;7.456;2023-08-06T06:37:45;14.00;;;6.75;;
22916;SDS011;11624;53.250;7.456;2023-08-06T06:40:13;14.55;;;6.55;;
22916;SDS011;11624;53.250;7.456;2023-08-06T06:42:43;13.73;;;6.88;;
22916;SDS011;11624;53.250;7.456;2023-08-06T06:45:13;14.82;;;6.93;;
22916;SDS011;11624;53.250;7.456;2023-08-06T06:47:41;15.02;;;6.63;;
22916;SDS011;11624;53.250;7.456;2023-08-06T06:50:09;16.25;;;6.93;;
22916;SDS011;11624;53.250;7.456;2023-08-06T06:52:38;14.02;;;6.35;;
22916;SDS011;11624;53.250;7.456;2023-08-06T06:55:06;15.88;;;6.75;;
22916;SDS011;11624;53.250;7.456;2023-08-06T06:57:35;18.17;;;7.15;;
22916;SDS011;11624;53.250;7.456;2023-08-06T07:00:05;15.60;;;6.55;;
22916;SDS011;11624;53.250;7.456;2023-08-06T07:02:35;15.27;;;6.80;;
22916;SDS011;11624;53.250;7.456;2023-08-06T07:05:03;14.65;;;6.85;;
22916;SDS011;11624;53.250;7.456;2023-08-06T07:07:33;14.43;;;6.72;;
22916;SDS011;11624;53.250;7.456;2023-08-06T07:10:01;16.02;;;6.75;;
22916;SDS011;11624;53.250;7.456;2023-08-06T07:12:30;13.57;;;6.22;;
22916;SDS011;11624;53.250;7.456;2023-08-06T07:14:58;14.18;;;6.43;;
22916;SDS011;11624;53.250;7.456;2023-08-06T07:17:28;14.25;;;6.43;;
22916;SDS011;11624;53.250;7.456;2023-08-06T07:19:56;13.25;;;5.55;;
22916;SDS011;11624;53.250;7.456;2023-08-06T07:22:25;12.65;;;5.82;;
22916;SDS011;11624;53.250;7.456;2023-08-06T07:24:53;12.65;;;5.72;;
22916;SDS011;11624;53.250;7.456;2023-08-06T07:27:21;10.70;;;4.75;;
22916;SDS011;11624;53.250;7.456;2023-08-06T07:29:50;11.75;;;5.30;;
22916;SDS011;11624;53.250;7.456;2023-08-06T07:32:18;12.00;;;5.22;;
22916;SDS011;11624;53.250;7.456;2023-08-06T07:34:48;11.27;;;4.80;;
22916;SDS011;11624;53.250;7.456;2023-08-06T07:37:16;12.30;;;4.53;;
22916;SDS011;11624;53.250;7.456;2023-08-06T07:39:45;12.05;;;4.93;;
22916;SDS011;11624;53.250;7.456;2023-08-06T07:42:13;11.05;;;4.93;;
22916;SDS011;11624;53.250;7.456;2023-08-06T07:44:41;11.23;;;5.20;;
22916;SDS011;11624;53.250;7.456;2023-08-06T07:47:10;10.63;;;4.70;;
22916;SDS011;11624;53.250;7.456;2023-08-06T07:49:38;11.07;;;4.53;;
22916;SDS011;11624;53.250;7.456;2023-08-06T07:52:11;10.98;;;4.57;;
22916;SDS011;11624;53.250;7.456;2023-08-06T07:54:39;10.98;;;4.47;;
22916;SDS011;11624;53.250;7.456;2023-08-06T07:57:07;10.52;;;4.30;;
22916;SDS011;11624;53.250;7.456;2023-08-06T07:59:36;13.35;;;4.45;;
22916;SDS011;11624;53.250;7.456;2023-08-06T08:02:05;11.13;;;4.85;;
22916;SDS011;11624;53.250;7.456;2023-08-06T08:04:34;9.60;;;4.00;;
22916;SDS011;11624;53.250;7.456;2023-08-06T08:07:02;11.27;;;4.68;;
22916;SDS011;11624;53.250;7.456;2023-08-06T08:09:32;11.63;;;4.93;;
22916;SDS011;11624;53.250;7.456;2023-08-06T08:12:02;11.77;;;4.63;;
22916;SDS011;11624;53.250;7.456;2023-08-06T08:14:31;10.80;;;4.78;;
22916;SDS011;11624;53.250;7.456;2023-08-06T08:17:02;10.30;;;4.40;;
22916;SDS011;11624;53.250;7.456;2023-08-06T08:19:31;9.82;;;4.28;;
22916;SDS011;11624;53.250;7.456;2023-08-06T08:21:59;11.27;;;4.80;;
22916;SDS011;11624;53.250;7.456;2023-08-06T08:24:28;11.48;;;4.93;;
22916;SDS011;11624;53.250;7.456;2023-08-06T08:27:05;9.68;;;4.30;;
22916;SDS011;11624;53.250;7.456;2023-08-06T08:29:33;12.30;;;4.85;;
22916;SDS011;11624;53.250;7.456;2023-08-06T08:32:02;9.75;;;4.47;;
22916;SDS011;11624;53.250;7.456;2023-08-06T08:34:30;11.30;;;4.75;;
22916;SDS011;11624;53.250;7.456;2023-08-06T08:36:58;10.48;;;4.60;;
22916;SDS011;11624;53.250;7.456;2023-08-06T08:39:27;11.20;;;5.15;;
22916;SDS011;11624;53.250;7.456;2023-08-06T08:41:55;11.65;;;5.50;;
22916;SDS011;11624;53.250;7.456;2023-08-06T08:44:25;13.57;;;5.65;;
22916;SDS011;11624;53.250;7.456;2023-08-06T08:46:55;11.75;;;5.43;;
22916;SDS011;11624;53.250;7.456;2023-08-06T08:49:25;14.30;;;6.05;;
22916;SDS011;11624;53.250;7.456;2023-08-06T08:51:55;12.32;;;5.78;;
22916;SDS011;11624;53.250;7.456;2023-08-06T08:54:24;12.23;;;5.80;;
22916;SDS011;11624;53.250;7.456;2023-08-06T08:56:54;11.70;;;5.65;;
22916;SDS011;11624;53.250;7.456;2023-08-06T08:59:24;13.25;;;5.75;;
22916;SDS011;11624;53.250;7.456;2023-08-06T09:01:54;10.60;;;4.82;;
22916;SDS011;11624;53.250;7.456;2023-08-06T09:04:23;9.60;;;4.55;;
22916;SDS011;11624;53.250;7.456;2023-08-06T09:06:53;9.70;;;4.25;;
22916;SDS011;11624;53.250;7.456;2023-08-06T09:09:25;9.18;;;4.05;;
22916;SDS011;11624;53.250;7.456;2023-08-06T09:11:57;11.45;;;3.90;;
22916;SDS011;11624;53.250;7.456;2023-08-06T09:14:29;8.30;;;3.80;;
22916;SDS011;11624;53.250;7.456;2023-08-06T09:16:58;6.93;;;3.17;;
22916;SDS011;11624;53.250;7.456;2023-08-06T09:19:26;9.82;;;3.88;;
22916;SDS011;11624;53.250;7.456;2023-08-06T09:21:55;7.20;;;3.55;;
22916;SDS011;11624;53.250;7.456;2023-08-06T09:24:24;8.55;;;3.47;;
22916;SDS011;11624;53.250;7.456;2023-08-06T09:26:54;8.23;;;3.40;;
22916;SDS011;11624;53.250;7.456;2023-08-06T09:29:23;7.55;;;2.95;;
22916;SDS011;11624;53.250;7.456;2023-08-06T09:31:53;8.73;;;3.17;;
22916;SDS011;11624;53.250;7.456;2023-08-06T09:34:22;5.85;;;2.70;;
22916;SDS011;11624;53.250;7.456;2023-08-06T09:36:51;6.55;;;2.80;;
22916;SDS011;11624;53.250;7.456;2023-08-06T09:39:26;4.45;;;2.50;;
22916;SDS011;11624;53.250;7.456;2023-08-06T09:41:55;3.92;;;2.38;;
22916;SDS011;11624;53.250;7.456;2023-08-06T09:44:25;6.93;;;2.40;;
22916;SDS011;11624;53.250;7.456;2023-08-06T09:46:56;5.95;;;1.98;;
22916;SDS011;11624;53.250;7.456;2023-08-06T09:49:26;5.78;;;2.30;;
22916;SDS011;11624;53.250;7.456;2023-08-06T09:51:56;7.75;;;2.50;;
22916;SDS011;11624;53.250;7.456;2023-08-06T09:54:26;4.65;;;2.10;;
22916;SDS011;11624;53.250;7.456;2023-08-06T09:56:57;3.85;;;2.22;;
22916;SDS011;11624;53.250;7.456;2023-08-06T09:59:25;3.33;;;1.90;;
22916;SDS011;11624;53.250;7.456;2023-08-06T10:01:55;3.75;;;1.92;;
22916;SDS011;11624;53.250;7.456;2023-08-06T10:04:24;4.38;;;2.20;;
22916;SDS011;11624;53.250;7.456;2023-08-06T10:06:58;3.92;;;2.00;;
22916;SDS011;11624;53.250;7.456;2023-08-06T10:09:28;4.55;;;1.90;;
22916;SDS011;11624;53.250;7.456;2023-08-06T10:11:56;4.43;;;2.28;;
22916;SDS011;11624;53.250;7.456;2023-08-06T10:14:28;3.70;;;2.08;;
22916;SDS011;11624;53.250;7.456;2023-08-06T10:17:02;4.68;;;2.28;;
22916;SDS011;11624;53.250;7.456;2023-08-06T10:19:31;5.10;;;2.28;;
22916;SDS011;11624;53.250;7.456;2023-08-06T10:22:10;9.32;;;2.55;;
22916;SDS011;11624;53.250;7.456;2023-08-06T10:24:49;6.97;;;2.45;;
22916;SDS011;11624;53.250;7.456;2023-08-06T10:27:19;4.60;;;2.10;;
22916;SDS011;11624;53.250;7.456;2023-08-06T10:29:51;6.82;;;2.22;;
22916;SDS011;11624;53.250;7.456;2023-08-06T10:32:22;6.00;;;2.30;;
22916;SDS011;11624;53.250;7.456;2023-08-06T10:38:03;3.28;;;1.90;;
22916;SDS011;11624;53.250;7.456;2023-08-06T10:40:33;4.95;;;2.17;;
22916;SDS011;11624;53.250;7.456;2023-08-06T10:43:02;6.93;;;2.22;;
22916;SDS011;11624;53.250;7.456;2023-08-06T10:45:36;4.07;;;2.00;;
22916;SDS011;11624;53.250;7.456;2023-08-06T10:48:07;3.60;;;1.85;;
22916;SDS011;11624;53.250;7.456;2023-08-06T10:50:36;3.22;;;2.00;;
22916;SDS011;11624;53.250;7.456;2023-08-06T10:53:04;4.13;;;1.70;;
22916;SDS011;11624;53.250;7.456;2023-08-06T10:55:34;4.47;;;1.98;;
22916;SDS011;11624;53.250;7.456;2023-08-06T10:58:05;4.68;;;1.70;;
22916;SDS011;11624;53.250;7.456;2023-08-06T11:00:33;5.35;;;2.08;;
22916;SDS011;11624;53.250;7.456;2023-08-06T11:03:01;3.92;;;1.95;;
22916;SDS011;11624;53.250;7.456;2023-08-06T11:05:33;3.70;;;1.90;;
22916;SDS011;11624;53.250;7.456;2023-08-06T11:08:01;4.55;;;2.05;;
22916;SDS011;11624;53.250;7.456;2023-08-06T11:10:32;6.18;;;2.13;;
22916;SDS011;11624;53.250;7.456;2023-08-06T11:13:01;5.28;;;1.90;;
22916;SDS011;11624;53.250;7.456;2023-08-06T11:15:29;3.50;;;1.90;;
22916;SDS011;11624;53.250;7.456;2023-08-06T11:17:58;4.88;;;2.20;;
22916;SDS011;11624;53.250;7.456;2023-08-06T11:20:27;4.25;;;1.80;;
22916;SDS011;11624;53.250;7.456;2023-08-06T11:22:57;5.75;;;2.00;;
22916;SDS011;11624;53.250;7.456;2023-08-06T11:25:25;6.55;;;2.28;;
22916;SDS011;11624;53.250;7.456;2023-08-06T11:27:54;3.85;;;2.03;;
22916;SDS011;11624;53.250;7.456;2023-08-06T11:30:22;6.28;;;1.92;;
22916;SDS011;11624;53.250;7.456;2023-08-06T11:32:52;4.75;;;2.15;;
22916;SDS011;11624;53.250;7.456;2023-08-06T11:35:50;4.60;;;2.15;;
22916;SDS011;11624;53.250;7.456;2023-08-06T11:38:20;3.67;;;1.92;;
22916;SDS011;11624;53.250;7.456;2023-08-06T11:40:50;3.60;;;1.70;;
22916;SDS011;11624;53.250;7.456;2023-08-06T11:43:19;5.20;;;2.17;;
22916;SDS011;11624;53.250;7.456;2023-08-06T11:45:49;4.05;;;2.13;;
22916;SDS011;11624;53.250;7.456;2023-08-06T11:48:19;5.40;;;2.17;;
22916;SDS011;11624;53.250;7.456;2023-08-06T11:50:48;5.32;;;2.20;;
22916;SDS011;11624;53.250;7.456;2023-08-06T11:53:16;4.20;;;2.08;;
22916;SDS011;11624;53.250;7.456;2023-08-06T11:55:46;4.80;;;2.00;;
22916;SDS011;11624;53.250;7.456;2023-08-06T11:58:16;4.88;;;2.05;;
22916;SDS011;11624;53.250;7.456;2023-08-06T12:00:44;4.80;;;2.22;;
22916;SDS011;11624;53.250;7.456;2023-08-06T12:03:13;4.97;;;2.30;;
22916;SDS011;11624;53.250;7.456;2023-08-06T12:05:43;7.85;;;2.20;;
22916;SDS011;11624;53.250;7.456;2023-08-06T12:08:13;4.63;;;2.22;;
22916;SDS011;11624;53.250;7.456;2023-08-06T12:10:42;4.28;;;2.28;;
22916;SDS011;11624;53.250;7.456;2023-08-06T12:13:12;6.00;;;2.30;;
22916;SDS011;11624;53.250;7.456;2023-08-06T12:15:40;3.78;;;1.80;;
22916;SDS011;11624;53.250;7.456;2023-08-06T12:18:08;4.55;;;2.20;;
22916;SDS011;11624;53.250;7.456;2023-08-06T12:20:37;5.20;;;2.40;;
22916;SDS011;11624;53.250;7.456;2023-08-06T12:23:06;7.30;;;2.95;;
22916;SDS011;11624;53.250;7.456;2023-08-06T12:25:36;5.93;;;2.10;;
22916;SDS011;11624;53.250;7.456;2023-08-06T12:28:04;4.85;;;2.25;;
22916;SDS011;11624;53.250;7.456;2023-08-06T12:30:35;7.38;;;2.53;;
22916;SDS011;11624;53.250;7.456;2023-08-06T12:33:04;5.10;;;2.20;;
22916;SDS011;11624;53.250;7.456;2023-08-06T12:35:32;6.00;;;2.33;;
22916;SDS011;11624;53.250;7.456;2023-08-06T12:38:00;5.25;;;2.10;;
22916;SDS011;11624;53.250;7.456;2023-08-06T12:40:29;4.82;;;2.33;;
22916;SDS011;11624;53.250;7.456;2023-08-06T12:43:04;4.90;;;2.08;;
22916;SDS011;11624;53.250;7.456;2023-08-06T12:45:32;5.38;;;2.15;;
22916;SDS011;11624;53.250;7.456;2023-08-06T12:48:03;5.50;;;2.15;;
22916;SDS011;11624;53.250;7.456;2023-08-06T12:50:31;5.13;;;2.08;;
22916;SDS011;11624;53.250;7.456;2023-08-06T12:53:01;4.10;;;2.03;;
22916;SDS011;11624;53.250;7.456;2023-08-06T12:55:31;7.22;;;2.30;;
22916;SDS011;11624;53.250;7.456;2023-08-06T12:57:59;4.22;;;1.98;;
22916;SDS011;11624;53.250;7.456;2023-08-06T13:00:28;5.95;;;2.00;;
22916;SDS011;11624;53.250;7.456;2023-08-06T13:02:56;5.68;;;2.10;;
22916;SDS011;11624;53.250;7.456;2023-08-06T13:05:26;5.80;;;2.15;;
22916;SDS011;11624;53.250;7.456;2023-08-06T13:07:54;7.15;;;2.30;;
22916;SDS011;11624;53.250;7.456;2023-08-06T13:10:23;4.03;;;2.05;;
22916;SDS011;11624;53.250;7.456;2023-08-06T13:12:52;4.78;;;2.35;;
22916;SDS011;11624;53.250;7.456;2023-08-06T13:15:20;4.13;;;2.05;;
22916;SDS011;11624;53.250;7.456;2023-08-06T13:17:49;7.13;;;2.50;;
22916;SDS011;11624;53.250;7.456;2023-08-06T13:20:18;3.97;;;1.98;;
22916;SDS011;11624;53.250;7.456;2023-08-06T13:22:48;4.13;;;1.98;;
22916;SDS011;11624;53.250;7.456;2023-08-06T13:25:20;5.80;;;2.42;;
22916;SDS011;11624;53.250;7.456;2023-08-06T13:27:48;5.45;;;2.33;;
22916;SDS011;11624;53.250;7.456;2023-08-06T13:30:16;6.25;;;2.17;;
22916;SDS011;11624;53.250;7.456;2023-08-06T13:32:45;4.18;;;2.13;;
22916;SDS011;11624;53.250;7.456;2023-08-06T13:35:14;6.38;;;2.40;;
22916;SDS011;11624;53.250;7.456;2023-08-06T13:37:42;4.90;;;2.03;;
22916;SDS011;11624;53.250;7.456;2023-08-06T13:40:12;3.88;;;2.05;;
22916;SDS011;11624;53.250;7.456;2023-08-06T13:42:41;4.55;;;1.75;;
22916;SDS011;11624;53.250;7.456;2023-08-06T13:45:10;5.50;;;2.25;;
22916;SDS011;11624;53.250;7.456;2023-08-06T13:47:38;6.32;;;2.17;;
22916;SDS011;11624;53.250;7.456;2023-08-06T13:50:07;5.57;;;2.20;;
22916;SDS011;11624;53.250;7.456;2023-08-06T13:52:36;4.82;;;2.05;;
22916;SDS011;11624;53.250;7.456;2023-08-06T13:55:04;3.47;;;1.88;;
22916;SDS011;11624;53.250;7.456;2023-08-06T13:57:35;4.30;;;2.20;;
22916;SDS011;11624;53.250;7.456;2023-08-06T14:00:04;4.82;;;2.00;;
22916;SDS011;11624;53.250;7.456;2023-08-06T14:02:41;5.75;;;2.38;;
22916;SDS011;11624;53.250;7.456;2023-08-06T14:05:11;5.22;;;2.30;;
22916;SDS011;11624;53.250;7.456;2023-08-06T14:07:40;3.67;;;1.73;;
22916;SDS011;11624;53.250;7.456;2023-08-06T14:10:08;5.03;;;2.10;;
22916;SDS011;11624;53.250;7.456;2023-08-06T14:12:38;4.70;;;1.90;;
22916;SDS011;11624;53.250;7.456;2023-08-06T14:15:07;3.22;;;1.88;;
22916;SDS011;11624;53.250;7.456;2023-08-06T14:17:36;4.53;;;1.88;;
22916;SDS011;11624;53.250;7.456;2023-08-06T14:20:05;3.53;;;1.80;;
22916;SDS011;11624;53.250;7.456;2023-08-06T14:22:38;4.78;;;2.05;;
22916;SDS011;11624;53.250;7.456;2023-08-06T14:25:07;6.70;;;1.92;;
22916;SDS011;11624;53.250;7.456;2023-08-06T14:27:35;3.53;;;1.88;;
22916;SDS011;11624;53.250;7.456;2023-08-06T14:30:07;4.90;;;2.05;;
22916;SDS011;11624;53.250;7.456;2023-08-06T14:32:36;3.20;;;1.70;;
22916;SDS011;11624;53.250;7.456;2023-08-06T14:35:04;5.35;;;1.90;;
22916;SDS011;11624;53.250;7.456;2023-08-06T14:37:33;4.90;;;2.15;;
22916;SDS011;11624;53.250;7.456;2023-08-06T14:40:02;2.72;;;1.70;;
22916;SDS011;11624;53.250;7.456;2023-08-06T14:42:30;4.50;;;2.00;;
22916;SDS011;11624;53.250;7.456;2023-08-06T14:44:59;3.08;;;1.83;;
22916;SDS011;11624;53.250;7.456;2023-08-06T14:47:28;7.75;;;2.20;;
22916;SDS011;11624;53.250;7.456;2023-08-06T14:49:57;4.65;;;2.10;;
22916;SDS011;11624;53.250;7.456;2023-08-06T14:52:26;3.53;;;2.00;;